createdAt,value
2022-10-18T00:00:07.710Z,7.90
2022-10-18T00:02:39.799Z,10.05
2022-10-18T00:05:09.100Z,12.80
2022-10-18T00:07:37.774Z,14.57
2022-10-18T00:10:07.532Z,7.50
2022-10-18T00:12:36.980Z,8.40
2022-10-18T00:15:09.170Z,13.02
2022-10-18T00:17:38.771Z,11.88
2022-10-18T00:20:08.489Z,14.32
2022-10-18T00:22:38.642Z,12.80
2022-10-18T00:25:08.907Z,9.37
2022-10-18T00:27:38.152Z,10.97
2022-10-18T00:30:09.367Z,9.57
2022-10-18T00:32:38.847Z,8.77
2022-10-18T00:35:09.340Z,12.95
2022-10-18T00:37:38.193Z,10.82
2022-10-18T00:40:07.852Z,14.38
2022-10-18T00:42:38.332Z,9.52
2022-10-18T00:45:21.302Z,12.00
2022-10-18T00:47:59.248Z,9.65
2022-10-18T00:50:31.450Z,11.38
2022-10-18T00:53:03.925Z,6.97
2022-10-18T00:55:34.718Z,7.32
2022-10-18T00:58:04.711Z,8.27
2022-10-18T01:00:39.012Z,9.07
2022-10-18T01:03:09.354Z,7.50
2022-10-18T01:05:41.802Z,8.02
2022-10-18T01:08:35.024Z,12.05
2022-10-18T01:11:15.303Z,11.10
2022-10-18T01:14:02.643Z,11.27
2022-10-18T01:16:40.994Z,11.70
2022-10-18T01:19:26.780Z,13.23
2022-10-18T01:22:00.656Z,9.52
2022-10-18T01:24:47.579Z,5.00
2022-10-18T01:27:43.074Z,8.57
2022-10-18T01:30:51.189Z,8.50
2022-10-18T01:33:39.203Z,7.47
2022-10-18T01:36:15.002Z,10.32
2022-10-18T01:38:45.356Z,6.40
2022-10-18T01:41:15.949Z,6.50
2022-10-18T01:43:48.014Z,5.25
2022-10-18T01:46:20.946Z,6.55
2022-10-18T01:48:53.030Z,5.63
2022-10-18T01:51:24.367Z,12.15
2022-10-18T01:53:53.136Z,7.25
2022-10-18T01:56:32.130Z,7.97
2022-10-18T01:59:29.776Z,6.72
2022-10-18T02:02:07.934Z,5.90
2022-10-18T02:04:44.162Z,6.38
2022-10-18T02:07:25.152Z,7.22
2022-10-18T02:10:02.716Z,8.57
2022-10-18T02:12:35.170Z,8.20
2022-10-18T02:15:06.327Z,6.68
2022-10-18T02:20:08.078Z,4.63
2022-10-18T02:22:39.575Z,8.07
2022-10-18T02:25:12.561Z,8.68
2022-10-18T02:27:41.694Z,6.68
2022-10-18T02:30:12.049Z,4.97
2022-10-18T02:32:47.339Z,5.10
2022-10-18T02:35:22.349Z,5.13
2022-10-18T02:37:53.952Z,5.18
2022-10-18T02:40:22.800Z,4.60
2022-10-18T02:42:57.020Z,6.45
2022-10-18T02:45:27.535Z,7.13
2022-10-18T02:47:56.333Z,6.30
2022-10-18T02:50:26.503Z,5.63
2022-10-18T02:52:55.098Z,4.93
2022-10-18T02:55:23.765Z,5.57
2022-10-18T02:57:52.353Z,5.20
2022-10-18T03:00:21.029Z,5.32
2022-10-18T03:02:50.738Z,4.22
2022-10-18T03:05:19.353Z,3.53
2022-10-18T03:07:50.179Z,6.63
2022-10-18T03:10:21.905Z,4.38
2022-10-18T03:12:53.889Z,3.42
2022-10-18T03:15:25.926Z,2.65
2022-10-18T03:17:57.546Z,3.90
2022-10-18T03:20:30.125Z,2.88
2022-10-18T03:23:21.241Z,2.33
2022-10-18T03:25:54.086Z,4.70
2022-10-18T03:28:26.252Z,5.07
2022-10-18T03:31:04.207Z,2.75
2022-10-18T03:33:39.180Z,2.38
2022-10-18T03:36:14.119Z,3.55
2022-10-18T03:38:50.024Z,3.53
2022-10-18T03:41:25.665Z,3.00
2022-10-18T03:43:57.325Z,2.63
2022-10-18T03:46:29.023Z,6.35
2022-10-18T03:49:01.946Z,3.35
2022-10-18T03:51:38.708Z,3.00
2022-10-18T03:54:14.621Z,1.73
2022-10-18T03:56:49.685Z,2.55
2022-10-18T03:59:22.509Z,2.92
2022-10-18T04:01:53.669Z,1.60
2022-10-18T04:04:30.065Z,5.63
2022-10-18T04:07:01.904Z,3.08
2022-10-18T04:09:35.406Z,2.97
2022-10-18T04:12:07.281Z,2.88
2022-10-18T04:14:41.529Z,6.88
2022-10-18T04:17:13.526Z,1.63
2022-10-18T04:19:47.648Z,3.40
2022-10-18T04:22:22.525Z,2.08
2022-10-18T04:24:54.338Z,4.15
2022-10-18T04:27:26.262Z,6.22
2022-10-18T04:29:55.350Z,9.32
2022-10-18T04:32:24.548Z,10.25
2022-10-18T04:34:54.577Z,12.82
2022-10-18T04:37:25.117Z,21.10
2022-10-18T04:39:55.683Z,26.85
2022-10-18T04:42:24.964Z,27.73
2022-10-18T04:44:53.882Z,29.92
2022-10-18T04:47:25.543Z,32.95
2022-10-18T04:49:54.571Z,35.58
2022-10-18T04:52:23.539Z,34.03
2022-10-18T04:54:52.480Z,27.60
2022-10-18T04:57:22.900Z,31.98
2022-10-18T04:59:52.486Z,26.05
2022-10-18T05:02:21.305Z,23.15
2022-10-18T05:04:50.322Z,21.73
2022-10-18T05:07:19.161Z,18.67
2022-10-18T05:09:48.086Z,16.85
2022-10-18T05:12:16.810Z,16.48
2022-10-18T05:14:47.297Z,15.95
2022-10-18T05:17:16.369Z,12.40
2022-10-18T05:19:47.789Z,12.15
2022-10-18T05:22:19.229Z,11.48
2022-10-18T05:24:48.179Z,11.77
2022-10-18T05:27:17.371Z,10.07
2022-10-18T05:29:47.901Z,7.95
2022-10-18T05:32:17.028Z,8.25
2022-10-18T05:34:45.822Z,9.07
2022-10-18T05:37:14.791Z,7.00
2022-10-18T05:39:44.680Z,7.60
2022-10-18T05:42:13.827Z,8.43
2022-10-18T05:44:42.560Z,8.05
2022-10-18T05:47:12.833Z,7.90
2022-10-18T05:49:41.617Z,8.70
2022-10-18T05:52:10.417Z,9.10
2022-10-18T05:54:39.178Z,7.55
2022-10-18T05:57:07.978Z,9.00
2022-10-18T05:59:36.740Z,9.20
2022-10-18T06:02:05.409Z,9.10
2022-10-18T06:04:36.226Z,9.13
2022-10-18T06:07:05.079Z,8.02
2022-10-18T06:09:33.669Z,11.57
2022-10-18T06:12:02.432Z,8.38
2022-10-18T06:14:31.032Z,9.15
2022-10-18T06:16:59.716Z,9.15
2022-10-18T06:19:28.292Z,9.40
2022-10-18T06:21:58.390Z,12.48
2022-10-18T06:24:27.587Z,11.57
2022-10-18T06:26:56.362Z,7.20
2022-10-18T06:29:25.103Z,6.05
2022-10-18T06:31:53.941Z,5.55
2022-10-18T06:34:22.878Z,9.32
2022-10-18T06:36:55.003Z,4.07
2022-10-18T06:39:28.238Z,4.38
2022-10-18T06:41:56.991Z,5.88
2022-10-18T06:44:26.285Z,4.70
2022-10-18T06:46:55.043Z,5.60
2022-10-18T06:49:23.611Z,3.25
2022-10-18T06:51:52.327Z,5.40
2022-10-18T06:54:21.265Z,2.00
2022-10-18T06:56:51.379Z,3.70
2022-10-18T06:59:20.191Z,5.90
2022-10-18T07:01:48.884Z,3.78
2022-10-18T07:04:17.519Z,2.58
2022-10-18T07:06:46.248Z,3.10
2022-10-18T07:09:14.989Z,3.95
2022-10-18T07:11:43.712Z,2.22
2022-10-18T07:14:16.287Z,3.35
2022-10-18T07:16:45.348Z,4.07
2022-10-18T07:19:15.124Z,5.32
2022-10-18T07:21:43.923Z,5.07
2022-10-18T07:24:12.632Z,1.67
2022-10-18T07:26:42.660Z,3.50
2022-10-18T07:29:14.548Z,5.78
2022-10-18T07:31:43.222Z,3.55
2022-10-18T07:34:14.637Z,3.40
2022-10-18T07:36:43.555Z,3.15
2022-10-18T07:39:12.432Z,4.53
2022-10-18T07:41:41.211Z,2.33
2022-10-18T07:44:09.998Z,3.13
2022-10-18T07:46:40.675Z,3.47
2022-10-18T07:49:09.348Z,2.42
2022-10-18T07:51:38.060Z,3.10
2022-10-18T07:54:06.888Z,5.45
2022-10-18T07:56:35.703Z,4.07
2022-10-18T07:59:04.382Z,2.20
2022-10-18T08:01:33.147Z,1.00
2022-10-18T08:04:07.810Z,2.55
2022-10-18T08:06:37.969Z,2.53
2022-10-18T08:09:07.263Z,3.67
2022-10-18T08:11:35.940Z,2.47
2022-10-18T08:14:04.654Z,1.75
2022-10-18T08:19:08.472Z,1.42
2022-10-18T08:21:37.223Z,1.33
2022-10-18T08:24:06.721Z,1.48
2022-10-18T08:26:35.751Z,0.73
2022-10-18T08:29:17.923Z,1.58
2022-10-18T08:31:51.636Z,1.50
2022-10-18T08:34:24.107Z,1.75
2022-10-18T08:36:52.945Z,0.75
2022-10-18T08:39:21.914Z,0.60
2022-10-18T08:42:10.404Z,0.60
2022-10-18T08:44:46.109Z,2.13
2022-10-18T08:47:18.525Z,0.30
2022-10-18T08:49:52.011Z,1.58
2022-10-18T08:52:34.530Z,1.33
2022-10-18T08:55:05.500Z,0.65
2022-10-18T08:57:34.766Z,1.27
2022-10-18T09:00:09.582Z,0.60
2022-10-18T09:02:51.557Z,1.38
2022-10-18T09:05:29.750Z,0.30
2022-10-18T09:08:40.040Z,1.20
2022-10-18T09:11:20.095Z,2.63
2022-10-18T09:14:04.509Z,3.90
2022-10-18T09:16:41.292Z,3.60
2022-10-18T09:19:18.963Z,2.10
2022-10-18T09:21:54.060Z,3.63
2022-10-18T09:24:29.176Z,11.93
2022-10-18T09:27:02.922Z,3.10
2022-10-18T09:29:44.844Z,1.70
2022-10-18T09:32:24.692Z,2.40
2022-10-18T09:34:59.405Z,1.13
2022-10-18T09:37:33.878Z,1.70
2022-10-18T09:40:16.582Z,3.45
2022-10-18T09:42:54.816Z,1.80
2022-10-18T09:45:29.205Z,3.78
2022-10-18T09:48:08.711Z,5.40
2022-10-18T09:50:42.703Z,2.38
2022-10-18T09:53:23.132Z,6.00
2022-10-18T09:56:02.153Z,4.50
2022-10-18T09:58:43.003Z,3.78
2022-10-18T10:01:14.585Z,9.43
2022-10-18T10:03:43.986Z,7.18
2022-10-18T10:06:25.645Z,3.65
2022-10-18T10:09:06.858Z,4.78
2022-10-18T10:11:38.788Z,3.20
2022-10-18T10:14:23.792Z,6.38
2022-10-18T10:16:55.553Z,3.13
2022-10-18T10:19:33.753Z,4.38
2022-10-18T10:22:07.246Z,1.83
2022-10-18T10:24:53.050Z,3.50
2022-10-18T10:27:26.494Z,2.55
2022-10-18T10:30:01.561Z,2.95
2022-10-18T10:32:46.383Z,4.00
2022-10-18T10:35:34.024Z,4.22
2022-10-18T10:38:25.324Z,1.35
2022-10-18T10:43:42.250Z,2.42
2022-10-18T10:46:13.507Z,1.10
2022-10-18T10:48:48.611Z,0.73
2022-10-18T10:51:20.667Z,2.78
2022-10-18T10:53:52.945Z,3.03
2022-10-18T10:56:29.238Z,0.73
2022-10-18T10:59:01.843Z,2.28
2022-10-18T11:01:33.480Z,2.63
2022-10-18T11:04:04.577Z,3.75
2022-10-18T11:06:53.665Z,2.47
2022-10-18T11:09:32.536Z,4.28
2022-10-18T11:12:18.153Z,3.20
2022-10-18T11:14:54.305Z,2.15
2022-10-18T11:17:33.263Z,1.67
2022-10-18T11:20:12.009Z,2.00
2022-10-18T11:22:45.476Z,3.42
2022-10-18T11:25:18.287Z,1.27
2022-10-18T11:27:56.629Z,6.80
2022-10-18T11:30:39.169Z,3.30
2022-10-18T11:33:28.699Z,1.33
2022-10-18T11:36:12.098Z,0.90
2022-10-18T11:38:50.240Z,3.00
2022-10-18T11:41:32.530Z,2.17
2022-10-18T11:44:04.790Z,5.97
2022-10-18T11:46:55.585Z,2.53
2022-10-18T11:49:53.267Z,1.63
2022-10-18T11:52:30.069Z,3.05
2022-10-18T11:55:12.289Z,4.05
2022-10-18T11:57:56.287Z,2.25
2022-10-18T12:00:39.559Z,2.75
2022-10-18T12:03:35.212Z,3.95
2022-10-18T12:06:07.968Z,1.70
2022-10-18T12:08:41.512Z,1.80
2022-10-18T12:11:16.039Z,0.77
2022-10-18T12:13:50.151Z,1.27
2022-10-18T12:16:45.450Z,0.40
2022-10-18T12:19:23.486Z,1.67
2022-10-18T12:21:58.348Z,1.13
2022-10-18T12:24:30.128Z,0.10
2022-10-18T12:27:02.861Z,0.10
2022-10-18T12:29:36.889Z,0.75
2022-10-18T12:32:10.780Z,0.60
2022-10-18T12:34:45.630Z,3.25
2022-10-18T12:37:48.902Z,0.00
2022-10-18T12:40:24.869Z,0.40
2022-10-18T12:42:55.055Z,1.05
2022-10-18T12:45:30.563Z,1.20
2022-10-18T12:48:03.984Z,2.05
2022-10-18T12:50:36.294Z,2.05
2022-10-18T12:53:16.491Z,1.58
2022-10-18T12:55:46.865Z,0.00
2022-10-18T12:58:27.809Z,0.08
2022-10-18T13:01:02.623Z,1.27
2022-10-18T13:03:41.467Z,1.15
2022-10-18T13:06:10.271Z,0.43
2022-10-18T13:08:42.290Z,1.00
2022-10-18T13:11:31.349Z,0.13
2022-10-18T13:14:18.624Z,0.70
2022-10-18T13:16:50.731Z,1.40
2022-10-18T13:19:27.080Z,0.45
2022-10-18T13:22:12.667Z,1.92
2022-10-18T13:24:46.887Z,0.45
2022-10-18T13:27:42.208Z,0.15
2022-10-18T13:30:34.653Z,1.65
2022-10-18T13:33:22.424Z,1.27
2022-10-18T13:35:58.268Z,1.27
2022-10-18T13:39:03.919Z,2.00
2022-10-18T13:41:35.555Z,1.45
2022-10-18T13:44:30.708Z,2.03
2022-10-18T13:47:35.558Z,1.08
2022-10-18T13:50:28.446Z,5.53
2022-10-18T13:53:36.112Z,2.05
2022-10-18T13:56:41.327Z,2.30
2022-10-18T13:59:29.171Z,1.70
2022-10-18T14:02:30.798Z,2.35
2022-10-18T14:05:25.746Z,0.50
2022-10-18T14:08:01.307Z,2.75
2022-10-18T14:11:01.277Z,6.53
2022-10-18T14:13:38.205Z,2.55
2022-10-18T14:16:12.265Z,3.85
2022-10-18T14:18:44.240Z,1.05
2022-10-18T14:21:21.991Z,2.00
2022-10-18T14:23:52.417Z,4.75
2022-10-18T14:26:23.093Z,1.60
2022-10-18T14:29:06.192Z,1.02
2022-10-18T14:31:36.098Z,1.85
2022-10-18T14:34:05.283Z,1.25
2022-10-18T14:36:39.201Z,2.47
2022-10-18T14:39:16.898Z,0.50
2022-10-18T14:41:52.368Z,2.15
2022-10-18T14:44:23.563Z,1.70
2022-10-18T14:46:53.979Z,0.98
2022-10-18T14:49:22.808Z,1.88
2022-10-18T14:51:53.382Z,0.85
2022-10-18T14:54:29.048Z,2.58
2022-10-18T14:57:02.876Z,0.73
2022-10-18T15:02:05.222Z,1.42
2022-10-18T15:04:34.105Z,1.35
2022-10-18T15:07:04.775Z,0.73
2022-10-18T15:09:35.819Z,1.08
2022-10-18T15:14:37.110Z,0.90
2022-10-18T15:17:17.155Z,0.63
2022-10-18T15:19:59.326Z,0.80
2022-10-18T15:22:32.671Z,1.90
2022-10-18T15:25:13.021Z,1.10
2022-10-18T15:27:46.835Z,1.88
2022-10-18T15:30:24.435Z,2.30
2022-10-18T15:32:55.039Z,1.10
2022-10-18T15:35:28.709Z,1.35
2022-10-18T15:37:58.930Z,1.48
2022-10-18T15:40:39.261Z,0.37
2022-10-18T15:43:36.520Z,1.08
2022-10-18T15:46:07.420Z,3.13
2022-10-18T15:51:07.622Z,2.92
2022-10-18T15:53:44.019Z,1.00
2022-10-18T15:56:28.993Z,1.48
2022-10-18T15:59:01.022Z,5.40
2022-10-18T16:01:36.102Z,1.60
2022-10-18T16:04:09.737Z,3.72
2022-10-18T16:06:38.919Z,2.22
2022-10-18T16:09:07.657Z,4.28
2022-10-18T16:11:36.318Z,2.90
2022-10-18T16:14:06.448Z,1.33
2022-10-18T16:16:35.312Z,2.97
2022-10-18T16:19:04.888Z,6.63
2022-10-18T16:21:36.124Z,1.60
2022-10-18T16:24:06.077Z,1.25
2022-10-18T16:26:35.495Z,1.42
2022-10-18T16:29:06.778Z,2.97
2022-10-18T16:31:36.341Z,1.23
2022-10-18T16:34:04.935Z,2.40
2022-10-18T16:36:35.330Z,1.70
2022-10-18T16:39:08.303Z,1.58
2022-10-18T16:41:37.062Z,0.70
2022-10-18T16:44:07.327Z,1.50
2022-10-18T16:46:36.925Z,1.63
2022-10-18T16:49:06.512Z,2.50
2022-10-18T16:51:35.513Z,3.97
2022-10-18T16:54:04.196Z,2.88
2022-10-18T16:56:33.933Z,1.38
2022-10-18T16:59:02.665Z,2.00
2022-10-18T17:01:32.854Z,0.95
2022-10-18T17:04:01.586Z,3.03
2022-10-18T17:06:31.973Z,2.65
2022-10-18T17:09:01.268Z,1.83
2022-10-18T17:11:30.263Z,2.92
2022-10-18T17:13:59.012Z,1.73
2022-10-18T17:19:07.373Z,1.70
2022-10-18T17:21:36.499Z,2.83
2022-10-18T17:24:06.431Z,0.55
2022-10-18T17:26:35.505Z,1.75
2022-10-18T17:29:07.167Z,2.45
2022-10-18T17:31:35.996Z,1.85
2022-10-18T17:34:06.250Z,2.78
2022-10-18T17:36:36.020Z,2.40
2022-10-18T17:39:05.771Z,4.47
2022-10-18T17:41:34.409Z,3.35
2022-10-18T17:44:04.473Z,2.13
2022-10-18T17:46:33.209Z,1.83
2022-10-18T17:49:01.891Z,0.75
2022-10-18T17:51:31.898Z,3.45
2022-10-18T17:54:00.541Z,1.23
2022-10-18T17:56:33.510Z,2.25
2022-10-18T17:59:02.326Z,1.30
2022-10-18T18:01:30.931Z,3.85
2022-10-18T18:04:01.551Z,1.40
2022-10-18T18:06:34.262Z,2.92
2022-10-18T18:09:07.119Z,4.32
2022-10-18T18:11:36.605Z,2.40
2022-10-18T18:14:11.100Z,3.85
2022-10-18T18:16:42.060Z,1.10
2022-10-18T18:19:11.471Z,11.98
2022-10-18T18:21:42.543Z,1.00
2022-10-18T18:26:40.781Z,1.15
2022-10-18T18:29:09.600Z,2.72
2022-10-18T18:31:40.253Z,1.05
2022-10-18T18:34:14.312Z,1.95
2022-10-18T18:36:45.070Z,2.33
2022-10-18T18:39:21.269Z,2.97
2022-10-18T18:41:51.503Z,0.50
2022-10-18T18:44:21.290Z,0.80
2022-10-18T18:46:50.395Z,9.30
2022-10-18T18:49:19.008Z,1.10
2022-10-18T18:51:49.112Z,0.63
2022-10-18T18:54:17.906Z,0.93
2022-10-18T18:56:47.080Z,3.05
2022-10-18T18:59:16.285Z,1.23
2022-10-18T19:01:45.746Z,3.42
2022-10-18T19:04:14.627Z,0.63
2022-10-18T19:06:45.123Z,3.63
2022-10-18T19:09:20.772Z,3.15
2022-10-18T19:11:50.795Z,2.35
2022-10-18T19:14:19.469Z,2.30
2022-10-18T19:16:48.769Z,0.63
2022-10-18T19:19:19.363Z,2.92
2022-10-18T19:21:50.151Z,0.77
2022-10-18T19:24:21.191Z,3.00
2022-10-18T19:29:21.839Z,0.75
2022-10-18T19:31:51.930Z,1.80
2022-10-18T19:34:22.549Z,0.73
2022-10-18T19:36:51.672Z,0.77
2022-10-18T19:39:23.552Z,3.08
2022-10-18T19:41:55.358Z,0.82
2022-10-18T19:44:27.628Z,1.85
2022-10-18T19:46:56.749Z,1.60
2022-10-18T19:49:25.309Z,0.95
2022-10-18T19:51:54.228Z,1.60
2022-10-18T19:54:24.460Z,1.65
2022-10-18T19:56:53.018Z,1.45
2022-10-18T19:59:22.828Z,2.47
2022-10-18T20:01:51.803Z,0.65
2022-10-18T20:04:20.341Z,1.00
2022-10-18T20:06:49.102Z,1.60
2022-10-18T20:09:20.428Z,3.53
2022-10-18T20:11:51.053Z,4.25
2022-10-18T20:14:20.324Z,1.15
2022-10-18T20:16:48.838Z,1.48
2022-10-18T20:19:17.566Z,7.80
2022-10-18T20:21:46.119Z,0.57
2022-10-18T20:24:14.684Z,2.28
2022-10-18T20:26:43.918Z,2.22
2022-10-18T20:29:14.237Z,2.47
2022-10-18T20:31:42.882Z,1.60
2022-10-18T20:34:13.411Z,4.03
2022-10-18T20:36:43.106Z,3.00
2022-10-18T20:39:11.816Z,0.93
2022-10-18T20:41:41.915Z,0.52
2022-10-18T20:44:16.943Z,5.20
2022-10-18T20:46:45.665Z,0.85
2022-10-18T20:49:16.519Z,3.42
2022-10-18T20:51:45.560Z,2.83
2022-10-18T20:54:14.296Z,2.03
2022-10-18T20:56:43.219Z,0.93
2022-10-18T20:59:12.397Z,0.80
2022-10-18T21:01:42.547Z,3.20
2022-10-18T21:04:12.295Z,1.57
2022-10-18T21:06:42.711Z,1.23
2022-10-18T21:09:14.421Z,1.27
2022-10-18T21:11:45.063Z,2.28
2022-10-18T21:14:15.614Z,4.53
2022-10-18T21:16:46.567Z,1.20
2022-10-18T21:19:16.683Z,1.52
2022-10-18T21:21:47.548Z,1.35
2022-10-18T21:24:16.192Z,5.03
2022-10-18T21:26:45.347Z,0.73
2022-10-18T21:29:18.098Z,4.07
2022-10-18T21:31:53.719Z,0.85
2022-10-18T21:34:22.750Z,3.65
2022-10-18T21:36:51.260Z,2.45
2022-10-18T21:39:21.984Z,1.67
2022-10-18T21:41:51.380Z,4.18
2022-10-18T21:44:20.325Z,3.40
2022-10-18T21:46:50.988Z,2.25
2022-10-18T21:49:19.831Z,3.72
2022-10-18T21:51:48.386Z,1.27
2022-10-18T21:54:17.783Z,0.50
2022-10-18T21:56:46.791Z,2.10
2022-10-18T21:59:15.827Z,0.55
2022-10-18T22:01:45.879Z,1.08
2022-10-18T22:04:22.042Z,7.23
2022-10-18T22:06:51.445Z,2.38
2022-10-18T22:09:21.318Z,3.15
2022-10-18T22:11:51.999Z,1.38
2022-10-18T22:14:21.300Z,3.42
2022-10-18T22:16:50.056Z,0.55
2022-10-18T22:19:20.685Z,3.03
2022-10-18T22:21:49.362Z,1.48
2022-10-18T22:24:18.142Z,2.05
2022-10-18T22:26:47.627Z,2.30
2022-10-18T22:29:18.234Z,0.25
2022-10-18T22:31:49.228Z,3.25
2022-10-18T22:36:48.511Z,2.65
2022-10-18T22:39:17.696Z,4.27
2022-10-18T22:41:46.701Z,1.48
2022-10-18T22:44:16.369Z,2.55
2022-10-18T22:46:44.993Z,1.23
2022-10-18T22:49:14.121Z,1.95
2022-10-18T22:51:42.893Z,3.30
2022-10-18T22:54:13.041Z,2.95
2022-10-18T22:56:41.749Z,2.43
2022-10-18T22:59:10.444Z,0.40
2022-10-18T23:01:39.446Z,2.17
2022-10-18T23:04:08.110Z,2.90
2022-10-18T23:06:38.078Z,4.72
2022-10-18T23:09:09.855Z,4.32
2022-10-18T23:11:40.028Z,6.03
2022-10-18T23:14:08.872Z,3.10
2022-10-18T23:16:37.609Z,2.13
2022-10-18T23:19:06.627Z,3.22
2022-10-18T23:21:35.680Z,2.65
2022-10-18T23:24:04.689Z,2.95
2022-10-18T23:26:33.573Z,2.75
2022-10-18T23:29:03.746Z,1.60
2022-10-18T23:31:34.081Z,2.10
2022-10-18T23:34:05.268Z,2.40
2022-10-18T23:36:34.870Z,1.50
2022-10-18T23:39:04.067Z,1.70
2022-10-18T23:41:32.826Z,6.30
2022-10-18T23:44:02.944Z,4.88
2022-10-18T23:46:31.574Z,1.90
2022-10-18T23:49:00.205Z,4.97
2022-10-18T23:51:29.028Z,6.10
2022-10-18T23:53:57.654Z,3.33
2022-10-18T23:56:26.291Z,4.07
2022-10-18T23:58:54.901Z,8.57
